sensor_id;sensor_type;location;lat;lon;timestamp;temperature;humidity
51982;DHT22;37998;53.416;6.730;2023-08-07T00:00:42;16.50;99.90
51982;DHT22;37998;53.416;6.730;2023-08-07T00:03:08;16.30;99.90
51982;DHT22;37998;53.416;6.730;2023-08-07T00:05:34;16.20;99.90
51982;DHT22;37998;53.416;6.730;2023-08-07T00:08:00;16.00;99.90
51982;DHT22;37998;53.416;6.730;2023-08-07T00:10:29;15.90;99.90
51982;DHT22;37998;53.416;6.730;2023-08-07T00:12:55;15.80;99.90
51982;DHT22;37998;53.416;6.730;2023-08-07T00:15:21;15.80;99.90
51982;DHT22;37998;53.416;6.730;2023-08-07T00:17:47;15.70;99.90
51982;DHT22;37998;53.416;6.730;2023-08-07T00:20:13;15.70;99.90
51982;DHT22;37998;53.416;6.730;2023-08-07T00:22:39;15.70;99.90
51982;DHT22;37998;53.416;6.730;2023-08-07T00:25:15;15.80;99.90
51982;DHT22;37998;53.416;6.730;2023-08-07T00:27:41;15.80;99.90
51982;DHT22;37998;53.416;6.730;2023-08-07T00:30:07;15.70;99.90
51982;DHT22;37998;53.416;6.730;2023-08-07T00:32:33;15.80;99.90
51982;DHT22;37998;53.416;6.730;2023-08-07T00:35:00;15.90;99.90
51982;DHT22;37998;53.416;6.730;2023-08-07T00:37:26;15.90;99.90
51982;DHT22;37998;53.416;6.730;2023-08-07T00:39:52;16.00;99.90
51982;DHT22;37998;53.416;6.730;2023-08-07T00:42:21;16.00;99.90
51982;DHT22;37998;53.416;6.730;2023-08-07T00:44:47;16.10;99.90
51982;DHT22;37998;53.416;6.730;2023-08-07T00:47:13;16.10;99.90
51982;DHT22;37998;53.416;6.730;2023-08-07T00:49:39;16.10;99.90
51982;DHT22;37998;53.416;6.730;2023-08-07T00:52:06;15.90;99.90
51982;DHT22;37998;53.416;6.730;2023-08-07T00:54:32;15.80;99.90
51982;DHT22;37998;53.416;6.730;2023-08-07T00:57:09;15.70;99.90
51982;DHT22;37998;53.416;6.730;2023-08-07T00:59:35;15.70;99.90
51982;DHT22;37998;53.416;6.730;2023-08-07T01:02:04;15.60;99.90
51982;DHT22;37998;53.416;6.730;2023-08-07T01:04:31;15.60;99.90
51982;DHT22;37998;53.416;6.730;2023-08-07T01:06:57;15.70;99.90
51982;DHT22;37998;53.416;6.730;2023-08-07T01:09:25;15.60;99.90
51982;DHT22;37998;53.416;6.730;2023-08-07T01:12:15;15.60;99.90
51982;DHT22;37998;53.416;6.730;2023-08-07T01:15:09;15.70;99.90
51982;DHT22;37998;53.416;6.730;2023-08-07T01:17:39;15.70;99.90
51982;DHT22;37998;53.416;6.730;2023-08-07T01:20:08;15.60;99.90
51982;DHT22;37998;53.416;6.730;2023-08-07T01:22:34;15.70;99.90
51982;DHT22;37998;53.416;6.730;2023-08-07T01:25:00;15.80;99.90
51982;DHT22;37998;53.416;6.730;2023-08-07T01:27:41;15.80;99.90
51982;DHT22;37998;53.416;6.730;2023-08-07T01:30:28;15.80;99.90
51982;DHT22;37998;53.416;6.730;2023-08-07T01:33:02;15.90;99.90
51982;DHT22;37998;53.416;6.730;2023-08-07T01:35:33;15.90;99.90
51982;DHT22;37998;53.416;6.730;2023-08-07T01:38:02;15.90;99.90
51982;DHT22;37998;53.416;6.730;2023-08-07T01:40:29;16.00;99.90
51982;DHT22;37998;53.416;6.730;2023-08-07T01:42:56;15.90;99.90
51982;DHT22;37998;53.416;6.730;2023-08-07T01:45:25;16.00;99.90
51982;DHT22;37998;53.416;6.730;2023-08-07T01:47:51;16.00;99.90
51982;DHT22;37998;53.416;6.730;2023-08-07T01:50:19;16.00;99.90
51982;DHT22;37998;53.416;6.730;2023-08-07T01:52:46;16.00;99.90
51982;DHT22;37998;53.416;6.730;2023-08-07T01:55:16;15.90;99.90
51982;DHT22;37998;53.416;6.730;2023-08-07T01:57:49;15.90;99.90
51982;DHT22;37998;53.416;6.730;2023-08-07T02:00:16;15.90;99.90
51982;DHT22;37998;53.416;6.730;2023-08-07T02:02:45;15.90;99.90
51982;DHT22;37998;53.416;6.730;2023-08-07T02:05:12;15.90;99.90
51982;DHT22;37998;53.416;6.730;2023-08-07T02:07:40;15.80;99.90
51982;DHT22;37998;53.416;6.730;2023-08-07T02:10:08;15.80;99.90
51982;DHT22;37998;53.416;6.730;2023-08-07T02:12:35;15.80;99.90
51982;DHT22;37998;53.416;6.730;2023-08-07T02:15:02;15.70;99.90
51982;DHT22;37998;53.416;6.730;2023-08-07T02:17:30;15.70;99.90
51982;DHT22;37998;53.416;6.730;2023-08-07T02:19:57;16.50;99.90
51982;DHT22;37998;53.416;6.730;2023-08-07T02:22:23;15.80;99.90
51982;DHT22;37998;53.416;6.730;2023-08-07T02:24:49;15.80;99.90
51982;DHT22;37998;53.416;6.730;2023-08-07T02:27:15;15.80;99.90
51982;DHT22;37998;53.416;6.730;2023-08-07T02:29:41;15.90;99.90
51982;DHT22;37998;53.416;6.730;2023-08-07T02:32:07;15.80;99.90
51982;DHT22;37998;53.416;6.730;2023-08-07T02:34:33;16.30;99.90
51982;DHT22;37998;53.416;6.730;2023-08-07T02:36:59;15.90;99.90
51982;DHT22;37998;53.416;6.730;2023-08-07T02:39:25;15.90;99.90
51982;DHT22;37998;53.416;6.730;2023-08-07T02:41:51;15.90;99.90
51982;DHT22;37998;53.416;6.730;2023-08-07T02:44:17;15.90;99.90
51982;DHT22;37998;53.416;6.730;2023-08-07T02:46:44;15.80;99.90
51982;DHT22;37998;53.416;6.730;2023-08-07T02:49:10;15.80;99.90
51982;DHT22;37998;53.416;6.730;2023-08-07T02:51:36;15.80;99.90
51982;DHT22;37998;53.416;6.730;2023-08-07T02:54:02;15.80;99.90
51982;DHT22;37998;53.416;6.730;2023-08-07T02:56:30;15.80;99.90
51982;DHT22;37998;53.416;6.730;2023-08-07T02:58:56;15.70;99.90
51982;DHT22;37998;53.416;6.730;2023-08-07T03:01:24;15.80;99.90
51982;DHT22;37998;53.416;6.730;2023-08-07T03:03:50;15.80;99.90
51982;DHT22;37998;53.416;6.730;2023-08-07T03:06:16;15.80;99.90
51982;DHT22;37998;53.416;6.730;2023-08-07T03:08:45;15.80;99.90
51982;DHT22;37998;53.416;6.730;2023-08-07T03:11:10;15.90;99.90
51982;DHT22;37998;53.416;6.730;2023-08-07T03:13:36;16.00;99.90
51982;DHT22;37998;53.416;6.730;2023-08-07T03:16:04;16.00;99.90
51982;DHT22;37998;53.416;6.730;2023-08-07T03:18:30;15.90;99.90
51982;DHT22;37998;53.416;6.730;2023-08-07T03:20:56;15.90;99.90
51982;DHT22;37998;53.416;6.730;2023-08-07T03:23:23;15.90;99.90
51982;DHT22;37998;53.416;6.730;2023-08-07T03:25:50;15.90;99.90
51982;DHT22;37998;53.416;6.730;2023-08-07T03:28:17;15.90;99.90
51982;DHT22;37998;53.416;6.730;2023-08-07T03:30:43;16.00;99.90
51982;DHT22;37998;53.416;6.730;2023-08-07T03:33:14;16.00;99.90
51982;DHT22;37998;53.416;6.730;2023-08-07T03:35:40;16.00;99.90
51982;DHT22;37998;53.416;6.730;2023-08-07T03:38:07;16.00;99.90
51982;DHT22;37998;53.416;6.730;2023-08-07T03:40:33;16.00;99.90
51982;DHT22;37998;53.416;6.730;2023-08-07T03:43:00;16.10;99.90
51982;DHT22;37998;53.416;6.730;2023-08-07T03:45:26;16.00;99.90
51982;DHT22;37998;53.416;6.730;2023-08-07T03:47:55;15.80;99.90
51982;DHT22;37998;53.416;6.730;2023-08-07T03:50:24;15.70;99.90
51982;DHT22;37998;53.416;6.730;2023-08-07T03:52:52;15.50;99.90
51982;DHT22;37998;53.416;6.730;2023-08-07T03:55:21;15.50;99.90
51982;DHT22;37998;53.416;6.730;2023-08-07T03:57:47;15.50;99.90
51982;DHT22;37998;53.416;6.730;2023-08-07T04:00:15;15.50;99.90
51982;DHT22;37998;53.416;6.730;2023-08-07T04:02:41;15.60;99.90
51982;DHT22;37998;53.416;6.730;2023-08-07T04:05:09;15.60;99.90
51982;DHT22;37998;53.416;6.730;2023-08-07T04:07:36;15.60;99.90
51982;DHT22;37998;53.416;6.730;2023-08-07T04:10:02;15.60;99.90
51982;DHT22;37998;53.416;6.730;2023-08-07T04:12:28;15.60;99.90
51982;DHT22;37998;53.416;6.730;2023-08-07T04:14:54;15.60;99.90
51982;DHT22;37998;53.416;6.730;2023-08-07T04:17:20;15.50;99.90
51982;DHT22;37998;53.416;6.730;2023-08-07T04:19:46;15.60;99.90
51982;DHT22;37998;53.416;6.730;2023-08-07T04:22:12;15.60;99.90
51982;DHT22;37998;53.416;6.730;2023-08-07T04:24:38;15.60;99.90
51982;DHT22;37998;53.416;6.730;2023-08-07T04:27:04;15.70;99.90
51982;DHT22;37998;53.416;6.730;2023-08-07T04:29:31;15.70;99.90
51982;DHT22;37998;53.416;6.730;2023-08-07T04:31:57;15.70;99.90
51982;DHT22;37998;53.416;6.730;2023-08-07T04:34:23;15.70;99.90
51982;DHT22;37998;53.416;6.730;2023-08-07T04:36:49;15.70;99.90
51982;DHT22;37998;53.416;6.730;2023-08-07T04:39:17;15.70;99.90
51982;DHT22;37998;53.416;6.730;2023-08-07T04:41:44;15.70;99.90
51982;DHT22;37998;53.416;6.730;2023-08-07T04:44:10;15.60;99.90
51982;DHT22;37998;53.416;6.730;2023-08-07T04:46:36;15.60;99.90
51982;DHT22;37998;53.416;6.730;2023-08-07T04:49:02;15.50;99.90
51982;DHT22;37998;53.416;6.730;2023-08-07T04:51:28;15.50;99.90
51982;DHT22;37998;53.416;6.730;2023-08-07T04:53:55;15.40;99.90
51982;DHT22;37998;53.416;6.730;2023-08-07T04:56:22;15.40;99.90
51982;DHT22;37998;53.416;6.730;2023-08-07T04:58:48;15.40;99.90
51982;DHT22;37998;53.416;6.730;2023-08-07T05:01:17;15.40;99.90
51982;DHT22;37998;53.416;6.730;2023-08-07T05:03:43;15.50;99.90
51982;DHT22;37998;53.416;6.730;2023-08-07T05:06:09;15.50;99.90
51982;DHT22;37998;53.416;6.730;2023-08-07T05:08:35;15.50;99.90
51982;DHT22;37998;53.416;6.730;2023-08-07T05:11:01;15.50;99.90
51982;DHT22;37998;53.416;6.730;2023-08-07T05:13:27;15.50;99.90
51982;DHT22;37998;53.416;6.730;2023-08-07T05:15:56;15.50;99.90
51982;DHT22;37998;53.416;6.730;2023-08-07T05:18:22;15.60;99.90
51982;DHT22;37998;53.416;6.730;2023-08-07T05:20:48;15.60;99.90
51982;DHT22;37998;53.416;6.730;2023-08-07T05:23:13;15.60;99.90
51982;DHT22;37998;53.416;6.730;2023-08-07T05:25:39;15.70;99.90
51982;DHT22;37998;53.416;6.730;2023-08-07T05:28:05;15.70;99.90
51982;DHT22;37998;53.416;6.730;2023-08-07T05:30:31;15.70;99.90
51982;DHT22;37998;53.416;6.730;2023-08-07T05:32:57;15.70;99.90
51982;DHT22;37998;53.416;6.730;2023-08-07T05:35:23;15.70;99.90
51982;DHT22;37998;53.416;6.730;2023-08-07T05:37:49;15.60;99.90
51982;DHT22;37998;53.416;6.730;2023-08-07T05:40:15;15.60;99.90
51982;DHT22;37998;53.416;6.730;2023-08-07T05:42:41;15.60;99.90
51982;DHT22;37998;53.416;6.730;2023-08-07T05:45:08;15.60;99.90
51982;DHT22;37998;53.416;6.730;2023-08-07T05:47:35;15.70;99.90
51982;DHT22;37998;53.416;6.730;2023-08-07T05:50:01;15.70;99.90
51982;DHT22;37998;53.416;6.730;2023-08-07T05:52:28;15.50;99.90
51982;DHT22;37998;53.416;6.730;2023-08-07T05:54:54;15.30;99.90
51982;DHT22;37998;53.416;6.730;2023-08-07T05:57:26;15.40;99.90
51982;DHT22;37998;53.416;6.730;2023-08-07T05:59:52;15.40;99.90
51982;DHT22;37998;53.416;6.730;2023-08-07T06:02:18;15.40;99.90
51982;DHT22;37998;53.416;6.730;2023-08-07T06:04:45;15.40;99.90
51982;DHT22;37998;53.416;6.730;2023-08-07T06:07:13;15.40;99.90
51982;DHT22;37998;53.416;6.730;2023-08-07T06:09:39;15.40;99.90
51982;DHT22;37998;53.416;6.730;2023-08-07T06:12:05;15.50;99.90
51982;DHT22;37998;53.416;6.730;2023-08-07T06:14:31;15.40;99.90
51982;DHT22;37998;53.416;6.730;2023-08-07T06:16:57;15.50;99.90
51982;DHT22;37998;53.416;6.730;2023-08-07T06:19:28;15.60;99.90
51982;DHT22;37998;53.416;6.730;2023-08-07T06:21:54;15.80;99.90
51982;DHT22;37998;53.416;6.730;2023-08-07T06:24:20;16.00;99.90
51982;DHT22;37998;53.416;6.730;2023-08-07T06:26:46;16.10;99.90
51982;DHT22;37998;53.416;6.730;2023-08-07T06:29:12;16.10;99.90
51982;DHT22;37998;53.416;6.730;2023-08-07T06:31:38;16.10;99.90
51982;DHT22;37998;53.416;6.730;2023-08-07T06:34:04;16.00;99.90
51982;DHT22;37998;53.416;6.730;2023-08-07T06:36:30;15.80;99.90
51982;DHT22;37998;53.416;6.730;2023-08-07T06:38:55;15.60;99.90
51982;DHT22;37998;53.416;6.730;2023-08-07T06:41:21;15.30;99.90
51982;DHT22;37998;53.416;6.730;2023-08-07T06:43:47;15.30;99.90
51982;DHT22;37998;53.416;6.730;2023-08-07T06:46:16;15.20;99.90
51982;DHT22;37998;53.416;6.730;2023-08-07T06:48:42;15.90;99.90
51982;DHT22;37998;53.416;6.730;2023-08-07T06:51:08;15.40;99.90
51982;DHT22;37998;53.416;6.730;2023-08-07T06:53:34;15.50;99.90
51982;DHT22;37998;53.416;6.730;2023-08-07T06:56:00;15.50;99.90
51982;DHT22;37998;53.416;6.730;2023-08-07T06:58:26;15.50;99.90
51982;DHT22;37998;53.416;6.730;2023-08-07T07:00:52;15.60;99.90
51982;DHT22;37998;53.416;6.730;2023-08-07T07:03:18;15.80;99.90
51982;DHT22;37998;53.416;6.730;2023-08-07T07:05:44;15.90;99.90
51982;DHT22;37998;53.416;6.730;2023-08-07T07:08:10;16.10;99.90
51982;DHT22;37998;53.416;6.730;2023-08-07T07:10:35;16.20;99.90
51982;DHT22;37998;53.416;6.730;2023-08-07T07:13:04;16.30;99.90
51982;DHT22;37998;53.416;6.730;2023-08-07T07:15:30;16.30;99.90
51982;DHT22;37998;53.416;6.730;2023-08-07T07:17:56;16.20;99.90
51982;DHT22;37998;53.416;6.730;2023-08-07T07:20:22;16.00;99.90
51982;DHT22;37998;53.416;6.730;2023-08-07T07:22:48;16.00;99.90
51982;DHT22;37998;53.416;6.730;2023-08-07T07:25:14;16.00;99.90
51982;DHT22;37998;53.416;6.730;2023-08-07T07:27:40;16.10;99.90
51982;DHT22;37998;53.416;6.730;2023-08-07T07:30:07;16.20;99.90
51982;DHT22;37998;53.416;6.730;2023-08-07T07:32:33;16.30;99.90
51982;DHT22;37998;53.416;6.730;2023-08-07T07:34:59;16.40;99.90
51982;DHT22;37998;53.416;6.730;2023-08-07T07:37:26;16.40;99.90
51982;DHT22;37998;53.416;6.730;2023-08-07T07:39:55;16.40;99.90
51982;DHT22;37998;53.416;6.730;2023-08-07T07:42:22;16.50;99.90
51982;DHT22;37998;53.416;6.730;2023-08-07T07:44:48;16.50;99.90
51982;DHT22;37998;53.416;6.730;2023-08-07T07:47:14;16.50;99.90
51982;DHT22;37998;53.416;6.730;2023-08-07T07:49:45;16.50;99.90
51982;DHT22;37998;53.416;6.730;2023-08-07T07:52:12;16.60;99.90
51982;DHT22;37998;53.416;6.730;2023-08-07T07:54:38;16.70;99.90
51982;DHT22;37998;53.416;6.730;2023-08-07T07:57:04;16.80;99.90
51982;DHT22;37998;53.416;6.730;2023-08-07T07:59:30;16.80;99.90
51982;DHT22;37998;53.416;6.730;2023-08-07T08:01:56;16.80;99.90
51982;DHT22;37998;53.416;6.730;2023-08-07T08:04:22;16.90;99.90
51982;DHT22;37998;53.416;6.730;2023-08-07T08:06:49;16.90;99.90
51982;DHT22;37998;53.416;6.730;2023-08-07T08:09:15;16.70;99.90
51982;DHT22;37998;53.416;6.730;2023-08-07T08:11:41;16.70;99.90
51982;DHT22;37998;53.416;6.730;2023-08-07T08:14:07;16.60;99.90
51982;DHT22;37998;53.416;6.730;2023-08-07T08:16:33;16.50;99.90
51982;DHT22;37998;53.416;6.730;2023-08-07T08:18:59;16.40;99.90
51982;DHT22;37998;53.416;6.730;2023-08-07T08:21:24;16.30;99.90
51982;DHT22;37998;53.416;6.730;2023-08-07T08:23:50;16.20;99.90
51982;DHT22;37998;53.416;6.730;2023-08-07T08:26:16;16.20;99.90
51982;DHT22;37998;53.416;6.730;2023-08-07T08:28:42;16.30;99.90
51982;DHT22;37998;53.416;6.730;2023-08-07T08:31:08;16.40;99.90
51982;DHT22;37998;53.416;6.730;2023-08-07T08:33:37;16.30;99.90
51982;DHT22;37998;53.416;6.730;2023-08-07T08:36:03;15.90;99.90
51982;DHT22;37998;53.416;6.730;2023-08-07T08:38:29;15.50;99.90
51982;DHT22;37998;53.416;6.730;2023-08-07T08:40:59;15.20;99.90
51982;DHT22;37998;53.416;6.730;2023-08-07T08:43:26;15.10;99.90
51982;DHT22;37998;53.416;6.730;2023-08-07T08:45:54;15.10;99.90
51982;DHT22;37998;53.416;6.730;2023-08-07T08:48:21;15.20;99.90
51982;DHT22;37998;53.416;6.730;2023-08-07T08:50:50;15.30;99.90
51982;DHT22;37998;53.416;6.730;2023-08-07T08:53:20;15.40;99.90
51982;DHT22;37998;53.416;6.730;2023-08-07T08:55:47;15.40;99.90
51982;DHT22;37998;53.416;6.730;2023-08-07T08:58:15;15.40;99.90
51982;DHT22;37998;53.416;6.730;2023-08-07T09:00:42;15.30;99.90
51982;DHT22;37998;53.416;6.730;2023-08-07T09:03:08;15.30;99.90
51982;DHT22;37998;53.416;6.730;2023-08-07T09:05:35;15.40;99.90
51982;DHT22;37998;53.416;6.730;2023-08-07T09:08:02;15.40;99.90
51982;DHT22;37998;53.416;6.730;2023-08-07T09:10:29;15.50;99.90
51982;DHT22;37998;53.416;6.730;2023-08-07T09:13:01;15.60;99.90
51982;DHT22;37998;53.416;6.730;2023-08-07T09:15:29;15.60;99.90
51982;DHT22;37998;53.416;6.730;2023-08-07T09:17:55;15.60;99.90
51982;DHT22;37998;53.416;6.730;2023-08-07T09:20:22;15.50;99.90
51982;DHT22;37998;53.416;6.730;2023-08-07T09:22:48;15.70;99.90
51982;DHT22;37998;53.416;6.730;2023-08-07T09:25:14;15.70;99.90
51982;DHT22;37998;53.416;6.730;2023-08-07T09:27:51;15.80;99.90
51982;DHT22;37998;53.416;6.730;2023-08-07T09:30:17;15.90;99.90
51982;DHT22;37998;53.416;6.730;2023-08-07T09:32:43;16.20;99.90
51982;DHT22;37998;53.416;6.730;2023-08-07T09:35:21;16.50;99.90
51982;DHT22;37998;53.416;6.730;2023-08-07T09:37:47;16.90;99.90
51982;DHT22;37998;53.416;6.730;2023-08-07T09:40:16;17.10;99.90
51982;DHT22;37998;53.416;6.730;2023-08-07T09:42:42;17.10;99.90
51982;DHT22;37998;53.416;6.730;2023-08-07T09:45:25;17.00;99.90
51982;DHT22;37998;53.416;6.730;2023-08-07T09:48:05;17.00;99.90
51982;DHT22;37998;53.416;6.730;2023-08-07T09:50:34;16.80;99.90
51982;DHT22;37998;53.416;6.730;2023-08-07T09:53:00;16.70;99.90
51982;DHT22;37998;53.416;6.730;2023-08-07T09:55:27;16.40;99.90
51982;DHT22;37998;53.416;6.730;2023-08-07T09:57:53;16.30;99.90
51982;DHT22;37998;53.416;6.730;2023-08-07T10:00:20;16.30;99.90
51982;DHT22;37998;53.416;6.730;2023-08-07T10:02:47;16.20;99.90
51982;DHT22;37998;53.416;6.730;2023-08-07T10:05:20;16.10;99.90
51982;DHT22;37998;53.416;6.730;2023-08-07T10:07:47;16.10;99.90
51982;DHT22;37998;53.416;6.730;2023-08-07T10:10:14;16.10;99.90
51982;DHT22;37998;53.416;6.730;2023-08-07T10:12:46;16.10;99.90
51982;DHT22;37998;53.416;6.730;2023-08-07T10:15:14;15.90;99.90
51982;DHT22;37998;53.416;6.730;2023-08-07T10:17:41;15.80;99.90
51982;DHT22;37998;53.416;6.730;2023-08-07T10:20:07;15.80;99.90
51982;DHT22;37998;53.416;6.730;2023-08-07T10:22:34;15.80;99.90
51982;DHT22;37998;53.416;6.730;2023-08-07T10:25:06;15.90;99.90
51982;DHT22;37998;53.416;6.730;2023-08-07T10:27:36;16.00;99.90
51982;DHT22;37998;53.416;6.730;2023-08-07T10:30:05;16.10;99.90
51982;DHT22;37998;53.416;6.730;2023-08-07T10:32:33;16.10;99.90
51982;DHT22;37998;53.416;6.730;2023-08-07T10:35:03;16.20;99.90
51982;DHT22;37998;53.416;6.730;2023-08-07T10:37:41;16.20;99.90
51982;DHT22;37998;53.416;6.730;2023-08-07T10:40:12;16.30;99.90
51982;DHT22;37998;53.416;6.730;2023-08-07T10:45:21;16.60;99.90
51982;DHT22;37998;53.416;6.730;2023-08-07T10:48:01;16.70;99.90
51982;DHT22;37998;53.416;6.730;2023-08-07T10:50:31;16.80;99.90
51982;DHT22;37998;53.416;6.730;2023-08-07T10:53:04;16.80;99.90
51982;DHT22;37998;53.416;6.730;2023-08-07T10:55:46;16.90;99.90
51982;DHT22;37998;53.416;6.730;2023-08-07T10:58:40;16.90;99.90
51982;DHT22;37998;53.416;6.730;2023-08-07T11:03:59;17.30;99.90
51982;DHT22;37998;53.416;6.730;2023-08-07T11:06:32;17.60;99.90
51982;DHT22;37998;53.416;6.730;2023-08-07T11:08:59;17.80;99.90
51982;DHT22;37998;53.416;6.730;2023-08-07T11:11:27;17.90;99.90
51982;DHT22;37998;53.416;6.730;2023-08-07T11:13:53;18.10;99.90
51982;DHT22;37998;53.416;6.730;2023-08-07T11:16:19;18.10;99.90
51982;DHT22;37998;53.416;6.730;2023-08-07T11:18:49;18.10;99.90
51982;DHT22;37998;53.416;6.730;2023-08-07T11:21:15;17.80;99.90
51982;DHT22;37998;53.416;6.730;2023-08-07T11:23:44;17.60;99.90
51982;DHT22;37998;53.416;6.730;2023-08-07T11:26:11;17.60;99.90
51982;DHT22;37998;53.416;6.730;2023-08-07T11:28:37;17.50;99.90
51982;DHT22;37998;53.416;6.730;2023-08-07T11:31:03;17.50;99.90
51982;DHT22;37998;53.416;6.730;2023-08-07T11:33:30;17.50;99.90
51982;DHT22;37998;53.416;6.730;2023-08-07T11:35:56;17.40;99.90
51982;DHT22;37998;53.416;6.730;2023-08-07T11:38:42;17.50;99.90
51982;DHT22;37998;53.416;6.730;2023-08-07T11:41:16;17.90;99.90
51982;DHT22;37998;53.416;6.730;2023-08-07T11:43:43;17.60;99.90
51982;DHT22;37998;53.416;6.730;2023-08-07T11:46:13;17.50;99.90
51982;DHT22;37998;53.416;6.730;2023-08-07T11:48:41;17.40;99.90
51982;DHT22;37998;53.416;6.730;2023-08-07T11:51:08;17.30;99.90
51982;DHT22;37998;53.416;6.730;2023-08-07T11:53:36;17.50;99.90
51982;DHT22;37998;53.416;6.730;2023-08-07T11:56:10;17.70;99.90
51982;DHT22;37998;53.416;6.730;2023-08-07T11:58:44;17.90;99.90
51982;DHT22;37998;53.416;6.730;2023-08-07T12:01:13;18.00;99.90
51982;DHT22;37998;53.416;6.730;2023-08-07T12:06:16;18.00;99.90
51982;DHT22;37998;53.416;6.730;2023-08-07T12:08:42;18.00;99.90
51982;DHT22;37998;53.416;6.730;2023-08-07T12:11:12;17.90;99.90
51982;DHT22;37998;53.416;6.730;2023-08-07T12:13:40;17.90;99.90
51982;DHT22;37998;53.416;6.730;2023-08-07T12:16:06;18.00;99.90
51982;DHT22;37998;53.416;6.730;2023-08-07T12:18:34;18.10;99.90
51982;DHT22;37998;53.416;6.730;2023-08-07T12:21:03;18.30;99.90
51982;DHT22;37998;53.416;6.730;2023-08-07T12:23:33;18.20;99.90
51982;DHT22;37998;53.416;6.730;2023-08-07T12:25:59;18.30;99.90
51982;DHT22;37998;53.416;6.730;2023-08-07T12:28:25;18.40;99.90
51982;DHT22;37998;53.416;6.730;2023-08-07T12:30:52;18.40;99.90
51982;DHT22;37998;53.416;6.730;2023-08-07T12:33:18;18.40;99.90
51982;DHT22;37998;53.416;6.730;2023-08-07T12:35:45;18.20;99.90
51982;DHT22;37998;53.416;6.730;2023-08-07T12:38:14;18.20;99.90
51982;DHT22;37998;53.416;6.730;2023-08-07T12:40:43;18.20;99.90
51982;DHT22;37998;53.416;6.730;2023-08-07T12:43:09;18.10;99.90
51982;DHT22;37998;53.416;6.730;2023-08-07T12:45:38;18.10;99.90
51982;DHT22;37998;53.416;6.730;2023-08-07T12:48:04;17.70;99.90
51982;DHT22;37998;53.416;6.730;2023-08-07T12:50:30;17.20;99.90
51982;DHT22;37998;53.416;6.730;2023-08-07T12:52:56;16.80;99.90
51982;DHT22;37998;53.416;6.730;2023-08-07T12:55:23;16.60;99.90
51982;DHT22;37998;53.416;6.730;2023-08-07T12:57:49;16.50;99.90
51982;DHT22;37998;53.416;6.730;2023-08-07T13:00:15;16.50;99.90
51982;DHT22;37998;53.416;6.730;2023-08-07T13:02:44;16.60;99.90
51982;DHT22;37998;53.416;6.730;2023-08-07T13:05:10;16.70;99.90
51982;DHT22;37998;53.416;6.730;2023-08-07T13:07:39;16.90;99.90
51982;DHT22;37998;53.416;6.730;2023-08-07T13:10:06;17.10;99.90
51982;DHT22;37998;53.416;6.730;2023-08-07T13:12:37;17.20;99.90
51982;DHT22;37998;53.416;6.730;2023-08-07T13:15:04;17.10;99.90
51982;DHT22;37998;53.416;6.730;2023-08-07T13:17:31;17.20;99.90
51982;DHT22;37998;53.416;6.730;2023-08-07T13:19:58;17.20;99.90
51982;DHT22;37998;53.416;6.730;2023-08-07T13:22:25;17.20;99.90
51982;DHT22;37998;53.416;6.730;2023-08-07T13:24:51;17.20;99.90
51982;DHT22;37998;53.416;6.730;2023-08-07T13:27:17;17.10;99.90
51982;DHT22;37998;53.416;6.730;2023-08-07T13:29:44;17.00;99.90
51982;DHT22;37998;53.416;6.730;2023-08-07T13:32:10;16.90;99.90
51982;DHT22;37998;53.416;6.730;2023-08-07T13:34:37;16.70;99.90
51982;DHT22;37998;53.416;6.730;2023-08-07T13:37:04;16.70;99.90
51982;DHT22;37998;53.416;6.730;2023-08-07T13:39:31;16.70;99.90
51982;DHT22;37998;53.416;6.730;2023-08-07T13:41:57;16.80;99.90
51982;DHT22;37998;53.416;6.730;2023-08-07T13:44:23;16.90;99.90
51982;DHT22;37998;53.416;6.730;2023-08-07T13:46:49;17.00;99.90
51982;DHT22;37998;53.416;6.730;2023-08-07T13:49:15;17.00;99.90
51982;DHT22;37998;53.416;6.730;2023-08-07T13:51:42;17.10;99.90
51982;DHT22;37998;53.416;6.730;2023-08-07T13:54:08;17.10;99.90
51982;DHT22;37998;53.416;6.730;2023-08-07T13:56:34;17.10;99.90
51982;DHT22;37998;53.416;6.730;2023-08-07T13:59:01;17.10;99.90
51982;DHT22;37998;53.416;6.730;2023-08-07T14:01:27;17.00;99.90
51982;DHT22;37998;53.416;6.730;2023-08-07T14:03:54;17.00;99.90
51982;DHT22;37998;53.416;6.730;2023-08-07T14:06:20;17.00;99.90
51982;DHT22;37998;53.416;6.730;2023-08-07T14:08:46;17.00;99.90
51982;DHT22;37998;53.416;6.730;2023-08-07T14:11:12;17.00;99.90
51982;DHT22;37998;53.416;6.730;2023-08-07T14:13:46;16.90;99.90
51982;DHT22;37998;53.416;6.730;2023-08-07T14:16:13;16.90;99.90
51982;DHT22;37998;53.416;6.730;2023-08-07T14:18:39;16.90;99.90
51982;DHT22;37998;53.416;6.730;2023-08-07T14:21:05;17.00;99.90
51982;DHT22;37998;53.416;6.730;2023-08-07T14:23:31;17.10;99.90
51982;DHT22;37998;53.416;6.730;2023-08-07T14:25:57;17.20;99.90
51982;DHT22;37998;53.416;6.730;2023-08-07T14:28:23;17.40;99.90
51982;DHT22;37998;53.416;6.730;2023-08-07T14:30:49;17.50;99.90
51982;DHT22;37998;53.416;6.730;2023-08-07T14:33:15;17.60;99.90
51982;DHT22;37998;53.416;6.730;2023-08-07T14:35:41;17.80;99.90
51982;DHT22;37998;53.416;6.730;2023-08-07T14:38:07;17.80;99.90
51982;DHT22;37998;53.416;6.730;2023-08-07T14:40:33;17.70;99.90
51982;DHT22;37998;53.416;6.730;2023-08-07T14:42:59;17.60;99.90
51982;DHT22;37998;53.416;6.730;2023-08-07T14:45:28;17.70;99.90
51982;DHT22;37998;53.416;6.730;2023-08-07T14:47:54;17.70;99.90
51982;DHT22;37998;53.416;6.730;2023-08-07T14:50:20;17.60;99.90
51982;DHT22;37998;53.416;6.730;2023-08-07T14:52:46;17.50;99.90
51982;DHT22;37998;53.416;6.730;2023-08-07T14:55:11;17.40;99.90
51982;DHT22;37998;53.416;6.730;2023-08-07T14:57:37;17.40;99.90
51982;DHT22;37998;53.416;6.730;2023-08-07T15:00:04;17.30;99.90
51982;DHT22;37998;53.416;6.730;2023-08-07T15:02:31;17.40;99.90
51982;DHT22;37998;53.416;6.730;2023-08-07T15:04:57;17.40;99.90
51982;DHT22;37998;53.416;6.730;2023-08-07T15:07:23;17.40;99.90
51982;DHT22;37998;53.416;6.730;2023-08-07T15:09:49;17.50;99.90
51982;DHT22;37998;53.416;6.730;2023-08-07T15:12:16;17.50;99.90
51982;DHT22;37998;53.416;6.730;2023-08-07T15:14:42;17.50;99.90
51982;DHT22;37998;53.416;6.730;2023-08-07T15:17:08;17.60;99.90
51982;DHT22;37998;53.416;6.730;2023-08-07T15:19:34;17.60;99.90
51982;DHT22;37998;53.416;6.730;2023-08-07T15:22:03;17.60;99.90
51982;DHT22;37998;53.416;6.730;2023-08-07T15:24:29;17.60;99.90
51982;DHT22;37998;53.416;6.730;2023-08-07T15:26:55;17.70;99.90
51982;DHT22;37998;53.416;6.730;2023-08-07T15:29:21;17.60;99.90
51982;DHT22;37998;53.416;6.730;2023-08-07T15:31:47;17.70;99.90
51982;DHT22;37998;53.416;6.730;2023-08-07T15:34:14;17.80;99.90
51982;DHT22;37998;53.416;6.730;2023-08-07T15:36:40;17.80;99.90
51982;DHT22;37998;53.416;6.730;2023-08-07T15:39:09;17.70;99.90